Philadelphia, Pennsylvania
Traffic Map
Current Weather Conditions
Philadelphia, Pennsylvania
Overcast
Overcast
73°
Feels Like: 73°
Wind Chill: 73° Ceiling: 7000
Heat Index: 73° Visibility: 10mi
Dew Point: 63° Wind: 5mph
Humidity: 71% Direction: 200° (SSW)
Pressure: 30.04in Gusts: 0mph
Raw Report DataKPHL 210354Z 20004KT 10SM BKN070 OVC085 23/17 A3004 RMK AO2 SLP173 T02280172
Traffic Incident Summary
Active as of:
Severity:
Category:
InformationThere was an issue retrieving the traffic information for this location. Please try a different location or try again shortly.
Advertisements
Track Severe Weather on mobile